Terminal Aerodrome Forecast
Issued by NWS

Home | Current Version | Previous Version | Text Only | Print | Product List | Glossary On
Versions: 1 2 3 4 5 6 7 8 9 10 11 12 13 14 15 16 17 18 19 20 21 22 23 24 25 26 27
000
FTUS43 KGRB 220200 AAA
TAFCWA
TAF AMD
KCWA 220226Z 2202/2224 10005KT 1SM BR OVC003
      TEMPO 2202/2205 1/2SM FG VV002
     FM220500 VRB03KT 1/2SM FG VV002
     FM221400 VRB03KT 4SM BR BKN008 BKN035
     FM221600 VRB03KT 6SM HZ BKN020 BKN035
     FM222200 VRB03KT 6SM HZ SCT030
      AMD LTD TO CLD VIS AND WIND 2203/2211=

USA.gov is the U.S. government's official web portal to all federal, state and local government web resources and services.